sensor_id;sensor_type;location;lat;lon;timestamp;P1;durP1;ratioP1;P2;durP2;ratioP2
33654;SDS011;19997;51.274;22.506;2023-05-07T00:01:57;5.13;;;1.52;;
33654;SDS011;19997;51.274;22.506;2023-05-07T00:04:26;3.25;;;1.65;;
33654;SDS011;19997;51.274;22.506;2023-05-07T00:06:53;1.95;;;1.33;;
33654;SDS011;19997;51.274;22.506;2023-05-07T00:09:20;2.03;;;1.35;;
33654;SDS011;19997;51.274;22.506;2023-05-07T00:11:47;4.68;;;1.50;;
33654;SDS011;19997;51.274;22.506;2023-05-07T00:14:14;2.60;;;1.50;;
33654;SDS011;19997;51.274;22.506;2023-05-07T00:16:41;2.33;;;1.67;;
33654;SDS011;19997;51.274;22.506;2023-05-07T00:19:09;1.95;;;1.50;;
33654;SDS011;19997;51.274;22.506;2023-05-07T00:21:37;2.00;;;1.38;;
33654;SDS011;19997;51.274;22.506;2023-05-07T00:24:04;3.15;;;1.80;;
33654;SDS011;19997;51.274;22.506;2023-05-07T00:26:31;3.30;;;2.05;;
33654;SDS011;19997;51.274;22.506;2023-05-07T00:28:58;3.05;;;1.75;;
33654;SDS011;19997;51.274;22.506;2023-05-07T00:31:26;3.17;;;1.70;;
33654;SDS011;19997;51.274;22.506;2023-05-07T00:33:53;3.00;;;1.45;;
33654;SDS011;19997;51.274;22.506;2023-05-07T00:36:20;2.53;;;1.75;;
33654;SDS011;19997;51.274;22.506;2023-05-07T00:38:48;2.20;;;1.52;;
33654;SDS011;19997;51.274;22.506;2023-05-07T00:41:15;2.95;;;1.40;;
33654;SDS011;19997;51.274;22.506;2023-05-07T00:43:42;3.13;;;1.50;;
33654;SDS011;19997;51.274;22.506;2023-05-07T00:46:10;3.10;;;1.52;;
33654;SDS011;19997;51.274;22.506;2023-05-07T00:48:37;1.40;;;1.30;;
33654;SDS011;19997;51.274;22.506;2023-05-07T00:51:04;1.88;;;1.20;;
33654;SDS011;19997;51.274;22.506;2023-05-07T00:53:32;2.08;;;1.60;;
33654;SDS011;19997;51.274;22.506;2023-05-07T00:56:01;1.90;;;1.33;;
33654;SDS011;19997;51.274;22.506;2023-05-07T00:58:28;1.42;;;1.20;;
33654;SDS011;19997;51.274;22.506;2023-05-07T01:00:56;3.08;;;1.67;;
33654;SDS011;19997;51.274;22.506;2023-05-07T01:03:23;3.25;;;1.23;;
33654;SDS011;19997;51.274;22.506;2023-05-07T01:05:50;4.80;;;1.95;;
33654;SDS011;19997;51.274;22.506;2023-05-07T01:08:19;1.92;;;1.33;;
33654;SDS011;19997;51.274;22.506;2023-05-07T01:10:50;2.13;;;1.27;;
33654;SDS011;19997;51.274;22.506;2023-05-07T01:13:19;2.75;;;1.20;;
33654;SDS011;19997;51.274;22.506;2023-05-07T01:15:46;1.33;;;1.13;;
33654;SDS011;19997;51.274;22.506;2023-05-07T01:18:13;3.35;;;1.40;;
33654;SDS011;19997;51.274;22.506;2023-05-07T01:20:41;2.17;;;1.50;;
33654;SDS011;19997;51.274;22.506;2023-05-07T01:23:09;1.70;;;1.13;;
33654;SDS011;19997;51.274;22.506;2023-05-07T01:25:37;1.70;;;1.13;;
33654;SDS011;19997;51.274;22.506;2023-05-07T01:28:05;1.88;;;0.98;;
33654;SDS011;19997;51.274;22.506;2023-05-07T01:30:35;1.42;;;1.00;;
33654;SDS011;19997;51.274;22.506;2023-05-07T01:33:08;1.45;;;1.15;;
33654;SDS011;19997;51.274;22.506;2023-05-07T01:35:39;1.77;;;1.15;;
33654;SDS011;19997;51.274;22.506;2023-05-07T01:38:12;2.30;;;1.25;;
33654;SDS011;19997;51.274;22.506;2023-05-07T01:40:40;1.50;;;1.30;;
33654;SDS011;19997;51.274;22.506;2023-05-07T01:43:07;3.10;;;1.40;;
33654;SDS011;19997;51.274;22.506;2023-05-07T01:45:36;2.58;;;1.38;;
33654;SDS011;19997;51.274;22.506;2023-05-07T01:48:04;5.25;;;1.95;;
33654;SDS011;19997;51.274;22.506;2023-05-07T01:50:32;2.35;;;1.38;;
33654;SDS011;19997;51.274;22.506;2023-05-07T01:52:59;2.05;;;1.13;;
33654;SDS011;19997;51.274;22.506;2023-05-07T01:55:30;1.58;;;1.42;;
33654;SDS011;19997;51.274;22.506;2023-05-07T01:57:57;1.88;;;1.38;;
33654;SDS011;19997;51.274;22.506;2023-05-07T02:00:24;1.38;;;1.17;;
33654;SDS011;19997;51.274;22.506;2023-05-07T02:02:52;4.97;;;1.60;;
33654;SDS011;19997;51.274;22.506;2023-05-07T02:05:27;2.10;;;1.52;;
33654;SDS011;19997;51.274;22.506;2023-05-07T02:08:00;1.55;;;1.27;;
33654;SDS011;19997;51.274;22.506;2023-05-07T02:10:30;2.13;;;1.35;;
33654;SDS011;19997;51.274;22.506;2023-05-07T02:12:58;2.67;;;1.42;;
33654;SDS011;19997;51.274;22.506;2023-05-07T02:15:27;1.70;;;1.30;;
33654;SDS011;19997;51.274;22.506;2023-05-07T02:17:58;1.50;;;1.05;;
33654;SDS011;19997;51.274;22.506;2023-05-07T02:20:26;2.38;;;1.45;;
33654;SDS011;19997;51.274;22.506;2023-05-07T02:22:54;3.92;;;1.88;;
33654;SDS011;19997;51.274;22.506;2023-05-07T02:25:21;2.28;;;1.60;;
33654;SDS011;19997;51.274;22.506;2023-05-07T02:27:50;2.30;;;1.20;;
33654;SDS011;19997;51.274;22.506;2023-05-07T02:30:19;2.30;;;1.17;;
33654;SDS011;19997;51.274;22.506;2023-05-07T02:32:47;3.00;;;1.20;;
33654;SDS011;19997;51.274;22.506;2023-05-07T02:35:14;1.38;;;1.15;;
33654;SDS011;19997;51.274;22.506;2023-05-07T02:37:41;3.97;;;1.35;;
33654;SDS011;19997;51.274;22.506;2023-05-07T02:40:09;3.75;;;1.30;;
33654;SDS011;19997;51.274;22.506;2023-05-07T02:42:37;1.75;;;0.93;;
33654;SDS011;19997;51.274;22.506;2023-05-07T02:45:06;1.98;;;1.33;;
33654;SDS011;19997;51.274;22.506;2023-05-07T02:47:34;3.45;;;1.20;;
33654;SDS011;19997;51.274;22.506;2023-05-07T02:50:03;1.55;;;1.30;;
33654;SDS011;19997;51.274;22.506;2023-05-07T02:52:31;1.75;;;1.63;;
33654;SDS011;19997;51.274;22.506;2023-05-07T02:54:58;2.08;;;1.38;;
33654;SDS011;19997;51.274;22.506;2023-05-07T02:57:25;2.17;;;1.17;;
33654;SDS011;19997;51.274;22.506;2023-05-07T02:59:52;2.80;;;1.35;;
33654;SDS011;19997;51.274;22.506;2023-05-07T03:02:22;2.28;;;1.25;;
33654;SDS011;19997;51.274;22.506;2023-05-07T03:04:50;2.43;;;1.40;;
33654;SDS011;19997;51.274;22.506;2023-05-07T03:07:17;1.60;;;1.30;;
33654;SDS011;19997;51.274;22.506;2023-05-07T03:09:45;2.00;;;1.10;;
33654;SDS011;19997;51.274;22.506;2023-05-07T03:12:12;3.30;;;1.38;;
33654;SDS011;19997;51.274;22.506;2023-05-07T03:14:39;1.73;;;1.17;;
33654;SDS011;19997;51.274;22.506;2023-05-07T03:17:06;2.65;;;1.15;;
33654;SDS011;19997;51.274;22.506;2023-05-07T03:19:35;2.40;;;1.00;;
33654;SDS011;19997;51.274;22.506;2023-05-07T03:22:02;2.70;;;1.88;;
33654;SDS011;19997;51.274;22.506;2023-05-07T03:24:29;4.43;;;1.60;;
33654;SDS011;19997;51.274;22.506;2023-05-07T03:26:56;1.90;;;1.45;;
33654;SDS011;19997;51.274;22.506;2023-05-07T03:29:24;1.92;;;1.45;;
33654;SDS011;19997;51.274;22.506;2023-05-07T03:31:51;1.50;;;1.40;;
33654;SDS011;19997;51.274;22.506;2023-05-07T03:34:18;2.40;;;1.70;;
33654;SDS011;19997;51.274;22.506;2023-05-07T03:36:48;3.28;;;1.67;;
33654;SDS011;19997;51.274;22.506;2023-05-07T03:39:16;2.45;;;1.15;;
33654;SDS011;19997;51.274;22.506;2023-05-07T03:41:43;2.03;;;1.05;;
33654;SDS011;19997;51.274;22.506;2023-05-07T03:44:10;1.50;;;1.17;;
33654;SDS011;19997;51.274;22.506;2023-05-07T03:46:38;1.42;;;1.00;;
33654;SDS011;19997;51.274;22.506;2023-05-07T03:49:07;1.60;;;1.38;;
33654;SDS011;19997;51.274;22.506;2023-05-07T03:51:34;1.20;;;1.02;;
33654;SDS011;19997;51.274;22.506;2023-05-07T03:54:04;2.55;;;1.02;;
33654;SDS011;19997;51.274;22.506;2023-05-07T03:56:33;2.08;;;1.30;;
33654;SDS011;19997;51.274;22.506;2023-05-07T03:59:00;2.45;;;1.40;;
33654;SDS011;19997;51.274;22.506;2023-05-07T04:01:27;2.85;;;1.58;;
33654;SDS011;19997;51.274;22.506;2023-05-07T04:03:55;2.25;;;1.50;;
33654;SDS011;19997;51.274;22.506;2023-05-07T04:06:23;3.33;;;1.35;;
33654;SDS011;19997;51.274;22.506;2023-05-07T04:08:50;2.20;;;1.42;;
33654;SDS011;19997;51.274;22.506;2023-05-07T04:11:19;2.30;;;1.30;;
33654;SDS011;19997;51.274;22.506;2023-05-07T04:13:46;2.15;;;1.27;;
33654;SDS011;19997;51.274;22.506;2023-05-07T04:16:16;1.58;;;1.00;;
33654;SDS011;19997;51.274;22.506;2023-05-07T04:18:43;1.10;;;0.98;;
33654;SDS011;19997;51.274;22.506;2023-05-07T04:21:14;3.15;;;1.48;;
33654;SDS011;19997;51.274;22.506;2023-05-07T04:23:42;4.28;;;1.83;;
33654;SDS011;19997;51.274;22.506;2023-05-07T04:26:11;2.95;;;0.98;;
33654;SDS011;19997;51.274;22.506;2023-05-07T04:28:43;3.47;;;1.38;;
33654;SDS011;19997;51.274;22.506;2023-05-07T04:31:11;5.70;;;1.02;;
33654;SDS011;19997;51.274;22.506;2023-05-07T04:33:39;1.70;;;1.15;;
33654;SDS011;19997;51.274;22.506;2023-05-07T04:38:44;1.40;;;1.10;;
33654;SDS011;19997;51.274;22.506;2023-05-07T04:41:12;1.70;;;0.90;;
33654;SDS011;19997;51.274;22.506;2023-05-07T04:43:40;4.22;;;1.48;;
33654;SDS011;19997;51.274;22.506;2023-05-07T04:46:11;1.27;;;0.90;;
33654;SDS011;19997;51.274;22.506;2023-05-07T04:48:39;1.20;;;1.02;;
33654;SDS011;19997;51.274;22.506;2023-05-07T04:51:06;1.42;;;1.27;;
33654;SDS011;19997;51.274;22.506;2023-05-07T04:53:33;2.42;;;0.98;;
33654;SDS011;19997;51.274;22.506;2023-05-07T04:56:00;2.13;;;1.60;;
33654;SDS011;19997;51.274;22.506;2023-05-07T04:58:37;1.90;;;1.15;;
33654;SDS011;19997;51.274;22.506;2023-05-07T05:01:05;2.80;;;1.27;;
33654;SDS011;19997;51.274;22.506;2023-05-07T05:03:33;2.63;;;1.38;;
33654;SDS011;19997;51.274;22.506;2023-05-07T05:06:01;1.83;;;1.17;;
33654;SDS011;19997;51.274;22.506;2023-05-07T05:08:32;1.88;;;1.60;;
33654;SDS011;19997;51.274;22.506;2023-05-07T05:11:00;2.10;;;1.58;;
33654;SDS011;19997;51.274;22.506;2023-05-07T05:13:29;2.58;;;1.13;;
33654;SDS011;19997;51.274;22.506;2023-05-07T05:15:56;4.55;;;1.30;;
33654;SDS011;19997;51.274;22.506;2023-05-07T05:18:25;1.85;;;1.30;;
33654;SDS011;19997;51.274;22.506;2023-05-07T05:20:54;1.65;;;1.10;;
33654;SDS011;19997;51.274;22.506;2023-05-07T05:23:22;1.77;;;1.58;;
33654;SDS011;19997;51.274;22.506;2023-05-07T05:25:49;4.00;;;1.73;;
33654;SDS011;19997;51.274;22.506;2023-05-07T05:28:21;2.08;;;1.88;;
33654;SDS011;19997;51.274;22.506;2023-05-07T05:30:49;3.33;;;1.80;;
33654;SDS011;19997;51.274;22.506;2023-05-07T05:33:16;2.70;;;2.03;;
33654;SDS011;19997;51.274;22.506;2023-05-07T05:35:43;3.83;;;1.63;;
33654;SDS011;19997;51.274;22.506;2023-05-07T05:38:13;1.98;;;1.60;;
33654;SDS011;19997;51.274;22.506;2023-05-07T05:40:40;3.65;;;1.70;;
33654;SDS011;19997;51.274;22.506;2023-05-07T05:43:07;3.47;;;1.50;;
33654;SDS011;19997;51.274;22.506;2023-05-07T05:45:36;2.08;;;1.55;;
33654;SDS011;19997;51.274;22.506;2023-05-07T05:48:03;4.13;;;1.80;;
33654;SDS011;19997;51.274;22.506;2023-05-07T05:50:31;1.80;;;1.50;;
33654;SDS011;19997;51.274;22.506;2023-05-07T05:53:01;2.72;;;1.67;;
33654;SDS011;19997;51.274;22.506;2023-05-07T05:55:29;3.13;;;1.67;;
33654;SDS011;19997;51.274;22.506;2023-05-07T05:57:57;3.25;;;1.98;;
33654;SDS011;19997;51.274;22.506;2023-05-07T06:00:25;3.60;;;1.83;;
33654;SDS011;19997;51.274;22.506;2023-05-07T06:03:00;5.28;;;2.00;;
33654;SDS011;19997;51.274;22.506;2023-05-07T06:05:27;4.15;;;1.95;;
33654;SDS011;19997;51.274;22.506;2023-05-07T06:07:56;3.20;;;2.08;;
33654;SDS011;19997;51.274;22.506;2023-05-07T06:10:24;2.95;;;2.03;;
33654;SDS011;19997;51.274;22.506;2023-05-07T06:12:54;3.75;;;2.25;;
33654;SDS011;19997;51.274;22.506;2023-05-07T06:15:22;5.55;;;2.03;;
33654;SDS011;19997;51.274;22.506;2023-05-07T06:17:49;2.40;;;2.10;;
33654;SDS011;19997;51.274;22.506;2023-05-07T06:20:17;3.75;;;2.30;;
33654;SDS011;19997;51.274;22.506;2023-05-07T06:22:44;2.47;;;1.88;;
33654;SDS011;19997;51.274;22.506;2023-05-07T06:25:13;4.22;;;1.83;;
33654;SDS011;19997;51.274;22.506;2023-05-07T06:27:41;3.90;;;2.47;;
33654;SDS011;19997;51.274;22.506;2023-05-07T06:30:11;4.95;;;2.38;;
33654;SDS011;19997;51.274;22.506;2023-05-07T06:32:39;3.15;;;2.35;;
33654;SDS011;19997;51.274;22.506;2023-05-07T06:35:08;3.05;;;2.40;;
33654;SDS011;19997;51.274;22.506;2023-05-07T06:37:37;4.68;;;2.05;;
33654;SDS011;19997;51.274;22.506;2023-05-07T06:40:06;4.20;;;2.40;;
33654;SDS011;19997;51.274;22.506;2023-05-07T06:42:37;6.45;;;2.10;;
33654;SDS011;19997;51.274;22.506;2023-05-07T06:45:34;3.60;;;2.25;;
33654;SDS011;19997;51.274;22.506;2023-05-07T06:48:01;2.88;;;2.30;;
33654;SDS011;19997;51.274;22.506;2023-05-07T06:50:33;2.22;;;1.80;;
33654;SDS011;19997;51.274;22.506;2023-05-07T06:53:02;3.10;;;2.38;;
33654;SDS011;19997;51.274;22.506;2023-05-07T06:55:32;3.35;;;2.20;;
33654;SDS011;19997;51.274;22.506;2023-05-07T06:58:00;3.13;;;2.05;;
33654;SDS011;19997;51.274;22.506;2023-05-07T07:00:27;6.70;;;2.47;;
33654;SDS011;19997;51.274;22.506;2023-05-07T07:02:57;4.97;;;2.45;;
33654;SDS011;19997;51.274;22.506;2023-05-07T07:05:27;3.42;;;2.20;;
33654;SDS011;19997;51.274;22.506;2023-05-07T07:07:55;2.95;;;2.22;;
33654;SDS011;19997;51.274;22.506;2023-05-07T07:10:23;4.90;;;2.45;;
33654;SDS011;19997;51.274;22.506;2023-05-07T07:12:52;2.65;;;2.10;;
33654;SDS011;19997;51.274;22.506;2023-05-07T07:15:20;2.95;;;2.35;;
33654;SDS011;19997;51.274;22.506;2023-05-07T07:17:48;6.45;;;2.38;;
33654;SDS011;19997;51.274;22.506;2023-05-07T07:20:17;2.90;;;1.80;;
33654;SDS011;19997;51.274;22.506;2023-05-07T07:22:45;6.03;;;2.22;;
33654;SDS011;19997;51.274;22.506;2023-05-07T07:25:14;3.90;;;2.50;;
33654;SDS011;19997;51.274;22.506;2023-05-07T07:27:41;5.88;;;3.50;;
33654;SDS011;19997;51.274;22.506;2023-05-07T07:30:09;4.05;;;2.08;;
33654;SDS011;19997;51.274;22.506;2023-05-07T07:32:39;3.28;;;2.25;;
33654;SDS011;19997;51.274;22.506;2023-05-07T07:35:07;4.30;;;2.03;;
33654;SDS011;19997;51.274;22.506;2023-05-07T07:37:37;2.78;;;2.00;;
33654;SDS011;19997;51.274;22.506;2023-05-07T07:40:05;6.10;;;2.40;;
33654;SDS011;19997;51.274;22.506;2023-05-07T07:42:33;4.30;;;2.22;;
33654;SDS011;19997;51.274;22.506;2023-05-07T07:45:01;6.00;;;2.22;;
33654;SDS011;19997;51.274;22.506;2023-05-07T07:47:32;3.05;;;2.28;;
33654;SDS011;19997;51.274;22.506;2023-05-07T07:49:59;3.58;;;2.35;;
33654;SDS011;19997;51.274;22.506;2023-05-07T07:52:27;3.97;;;2.40;;
33654;SDS011;19997;51.274;22.506;2023-05-07T07:54:55;5.05;;;2.20;;
33654;SDS011;19997;51.274;22.506;2023-05-07T07:57:22;3.92;;;2.30;;
33654;SDS011;19997;51.274;22.506;2023-05-07T07:59:50;4.72;;;2.00;;
33654;SDS011;19997;51.274;22.506;2023-05-07T08:02:18;3.65;;;2.65;;
33654;SDS011;19997;51.274;22.506;2023-05-07T08:04:46;3.20;;;1.98;;
33654;SDS011;19997;51.274;22.506;2023-05-07T08:07:13;5.57;;;2.55;;
33654;SDS011;19997;51.274;22.506;2023-05-07T08:09:46;7.28;;;1.92;;
33654;SDS011;19997;51.274;22.506;2023-05-07T08:12:17;3.00;;;2.03;;
33654;SDS011;19997;51.274;22.506;2023-05-07T08:14:44;7.85;;;3.53;;
33654;SDS011;19997;51.274;22.506;2023-05-07T08:17:11;7.63;;;3.70;;
33654;SDS011;19997;51.274;22.506;2023-05-07T08:19:41;7.80;;;3.47;;
33654;SDS011;19997;51.274;22.506;2023-05-07T08:22:11;4.82;;;3.13;;
33654;SDS011;19997;51.274;22.506;2023-05-07T08:24:38;24.85;;;4.13;;
33654;SDS011;19997;51.274;22.506;2023-05-07T08:27:05;8.55;;;3.65;;
33654;SDS011;19997;51.274;22.506;2023-05-07T08:29:34;4.85;;;2.80;;
33654;SDS011;19997;51.274;22.506;2023-05-07T08:32:01;6.72;;;3.45;;
33654;SDS011;19997;51.274;22.506;2023-05-07T08:34:29;5.30;;;3.00;;
33654;SDS011;19997;51.274;22.506;2023-05-07T08:36:57;8.10;;;3.05;;
33654;SDS011;19997;51.274;22.506;2023-05-07T08:39:25;5.28;;;2.75;;
33654;SDS011;19997;51.274;22.506;2023-05-07T08:41:55;4.43;;;2.25;;
33654;SDS011;19997;51.274;22.506;2023-05-07T08:46:56;5.10;;;2.93;;
33654;SDS011;19997;51.274;22.506;2023-05-07T08:49:25;4.75;;;2.42;;
33654;SDS011;19997;51.274;22.506;2023-05-07T08:51:53;7.07;;;3.15;;
33654;SDS011;19997;51.274;22.506;2023-05-07T08:54:21;9.07;;;3.75;;
33654;SDS011;19997;51.274;22.506;2023-05-07T08:56:49;4.32;;;2.47;;
33654;SDS011;19997;51.274;22.506;2023-05-07T08:59:17;4.25;;;2.63;;
33654;SDS011;19997;51.274;22.506;2023-05-07T09:01:44;4.28;;;2.70;;
33654;SDS011;19997;51.274;22.506;2023-05-07T09:04:13;4.38;;;2.75;;
33654;SDS011;19997;51.274;22.506;2023-05-07T09:06:41;3.75;;;2.35;;
33654;SDS011;19997;51.274;22.506;2023-05-07T09:09:10;2.75;;;2.38;;
33654;SDS011;19997;51.274;22.506;2023-05-07T09:11:41;3.63;;;2.88;;
33654;SDS011;19997;51.274;22.506;2023-05-07T09:14:09;4.85;;;3.08;;
33654;SDS011;19997;51.274;22.506;2023-05-07T09:16:40;3.55;;;2.70;;
33654;SDS011;19997;51.274;22.506;2023-05-07T09:19:07;3.08;;;2.35;;
33654;SDS011;19997;51.274;22.506;2023-05-07T09:21:37;3.78;;;2.45;;
33654;SDS011;19997;51.274;22.506;2023-05-07T09:24:08;8.60;;;3.13;;
33654;SDS011;19997;51.274;22.506;2023-05-07T09:26:39;4.70;;;2.85;;
33654;SDS011;19997;51.274;22.506;2023-05-07T09:29:07;6.93;;;3.38;;
33654;SDS011;19997;51.274;22.506;2023-05-07T09:31:36;3.20;;;2.53;;
33654;SDS011;19997;51.274;22.506;2023-05-07T09:34:05;4.10;;;2.28;;
33654;SDS011;19997;51.274;22.506;2023-05-07T09:36:35;3.33;;;2.42;;
33654;SDS011;19997;51.274;22.506;2023-05-07T09:39:03;3.22;;;2.00;;
33654;SDS011;19997;51.274;22.506;2023-05-07T09:41:31;3.35;;;2.47;;
33654;SDS011;19997;51.274;22.506;2023-05-07T09:44:27;3.15;;;1.92;;
33654;SDS011;19997;51.274;22.506;2023-05-07T09:46:55;2.97;;;1.77;;
33654;SDS011;19997;51.274;22.506;2023-05-07T09:49:30;4.03;;;1.90;;
33654;SDS011;19997;51.274;22.506;2023-05-07T09:52:06;3.20;;;2.40;;
33654;SDS011;19997;51.274;22.506;2023-05-07T09:54:37;7.95;;;2.13;;
33654;SDS011;19997;51.274;22.506;2023-05-07T09:57:06;6.85;;;2.78;;
33654;SDS011;19997;51.274;22.506;2023-05-07T09:59:34;4.25;;;2.20;;
33654;SDS011;19997;51.274;22.506;2023-05-07T10:02:08;3.47;;;1.70;;
33654;SDS011;19997;51.274;22.506;2023-05-07T10:04:44;3.25;;;1.80;;
33654;SDS011;19997;51.274;22.506;2023-05-07T10:07:14;3.80;;;1.77;;
33654;SDS011;19997;51.274;22.506;2023-05-07T10:09:44;2.63;;;1.55;;
33654;SDS011;19997;51.274;22.506;2023-05-07T10:12:21;1.40;;;0.88;;
33654;SDS011;19997;51.274;22.506;2023-05-07T10:14:49;3.78;;;2.17;;
33654;SDS011;19997;51.274;22.506;2023-05-07T10:17:19;2.03;;;1.73;;
33654;SDS011;19997;51.274;22.506;2023-05-07T10:19:47;2.33;;;1.50;;
33654;SDS011;19997;51.274;22.506;2023-05-07T10:22:19;3.60;;;1.53;;
33654;SDS011;19997;51.274;22.506;2023-05-07T10:24:47;2.67;;;1.58;;
33654;SDS011;19997;51.274;22.506;2023-05-07T10:27:20;2.95;;;1.73;;
33654;SDS011;19997;51.274;22.506;2023-05-07T10:29:54;3.78;;;1.80;;
33654;SDS011;19997;51.274;22.506;2023-05-07T10:32:37;4.20;;;2.05;;
33654;SDS011;19997;51.274;22.506;2023-05-07T10:35:10;7.88;;;2.47;;
33654;SDS011;19997;51.274;22.506;2023-05-07T10:37:44;2.70;;;1.80;;
33654;SDS011;19997;51.274;22.506;2023-05-07T10:40:12;3.75;;;2.28;;
33654;SDS011;19997;51.274;22.506;2023-05-07T10:42:52;3.55;;;2.63;;
33654;SDS011;19997;51.274;22.506;2023-05-07T10:45:22;2.35;;;2.08;;
33654;SDS011;19997;51.274;22.506;2023-05-07T10:48:08;6.28;;;2.47;;
33654;SDS011;19997;51.274;22.506;2023-05-07T10:50:37;4.22;;;2.63;;
33654;SDS011;19997;51.274;22.506;2023-05-07T10:53:22;6.20;;;3.88;;
33654;SDS011;19997;51.274;22.506;2023-05-07T11:02:17;4.57;;;1.83;;
33654;SDS011;19997;51.274;22.506;2023-05-07T11:07:53;2.38;;;1.88;;
33654;SDS011;19997;51.274;22.506;2023-05-07T11:10:24;2.58;;;1.80;;
33654;SDS011;19997;51.274;22.506;2023-05-07T11:16:17;3.30;;;1.98;;
33654;SDS011;19997;51.274;22.506;2023-05-07T11:18:46;2.25;;;1.60;;
33654;SDS011;19997;51.274;22.506;2023-05-07T11:24:23;2.25;;;1.70;;
33654;SDS011;19997;51.274;22.506;2023-05-07T11:26:58;3.67;;;1.92;;
33654;SDS011;19997;51.274;22.506;2023-05-07T11:29:28;3.42;;;1.80;;
33654;SDS011;19997;51.274;22.506;2023-05-07T11:32:03;2.88;;;1.98;;
33654;SDS011;19997;51.274;22.506;2023-05-07T11:34:36;9.57;;;1.70;;
33654;SDS011;19997;51.274;22.506;2023-05-07T11:37:04;3.20;;;1.90;;
33654;SDS011;19997;51.274;22.506;2023-05-07T11:40:02;4.35;;;2.05;;
33654;SDS011;19997;51.274;22.506;2023-05-07T11:42:32;2.83;;;1.98;;
33654;SDS011;19997;51.274;22.506;2023-05-07T11:45:01;2.38;;;1.88;;
33654;SDS011;19997;51.274;22.506;2023-05-07T11:47:30;2.30;;;1.70;;
33654;SDS011;19997;51.274;22.506;2023-05-07T11:49:57;2.88;;;1.90;;
33654;SDS011;19997;51.274;22.506;2023-05-07T11:52:29;6.05;;;2.05;;
33654;SDS011;19997;51.274;22.506;2023-05-07T11:54:57;1.92;;;1.75;;
33654;SDS011;19997;51.274;22.506;2023-05-07T11:57:26;4.20;;;1.98;;
33654;SDS011;19997;51.274;22.506;2023-05-07T11:59:55;2.92;;;1.45;;
33654;SDS011;19997;51.274;22.506;2023-05-07T12:02:23;2.25;;;1.90;;
33654;SDS011;19997;51.274;22.506;2023-05-07T12:04:51;2.85;;;1.83;;
33654;SDS011;19997;51.274;22.506;2023-05-07T12:07:18;4.82;;;1.90;;
33654;SDS011;19997;51.274;22.506;2023-05-07T12:09:45;6.30;;;2.65;;
33654;SDS011;19997;51.274;22.506;2023-05-07T12:12:13;3.38;;;2.00;;
33654;SDS011;19997;51.274;22.506;2023-05-07T12:14:42;3.63;;;2.10;;
33654;SDS011;19997;51.274;22.506;2023-05-07T12:17:12;2.17;;;1.40;;
33654;SDS011;19997;51.274;22.506;2023-05-07T12:19:41;2.40;;;1.90;;
33654;SDS011;19997;51.274;22.506;2023-05-07T12:22:11;2.85;;;1.48;;
33654;SDS011;19997;51.274;22.506;2023-05-07T12:24:45;3.53;;;2.25;;
33654;SDS011;19997;51.274;22.506;2023-05-07T12:27:13;4.13;;;2.60;;
33654;SDS011;19997;51.274;22.506;2023-05-07T12:29:43;3.47;;;1.80;;
33654;SDS011;19997;51.274;22.506;2023-05-07T12:34:41;5.75;;;1.67;;
33654;SDS011;19997;51.274;22.506;2023-05-07T12:37:08;2.97;;;1.60;;
33654;SDS011;19997;51.274;22.506;2023-05-07T12:39:36;4.18;;;1.60;;
33654;SDS011;19997;51.274;22.506;2023-05-07T12:42:03;3.42;;;1.50;;
33654;SDS011;19997;51.274;22.506;2023-05-07T12:44:30;5.47;;;2.10;;
33654;SDS011;19997;51.274;22.506;2023-05-07T12:47:01;9.95;;;3.50;;
33654;SDS011;19997;51.274;22.506;2023-05-07T12:49:30;15.20;;;5.63;;
33654;SDS011;19997;51.274;22.506;2023-05-07T12:51:57;44.55;;;13.35;;
33654;SDS011;19997;51.274;22.506;2023-05-07T12:54:28;83.50;;;28.58;;
33654;SDS011;19997;51.274;22.506;2023-05-07T12:57:00;76.35;;;28.25;;
33654;SDS011;19997;51.274;22.506;2023-05-07T12:59:31;39.78;;;15.20;;
33654;SDS011;19997;51.274;22.506;2023-05-07T13:01:59;5.80;;;2.50;;
33654;SDS011;19997;51.274;22.506;2023-05-07T13:04:26;2.35;;;1.83;;
33654;SDS011;19997;51.274;22.506;2023-05-07T13:06:55;10.40;;;6.15;;
33654;SDS011;19997;51.274;22.506;2023-05-07T13:09:22;4.03;;;2.75;;
33654;SDS011;19997;51.274;22.506;2023-05-07T13:11:49;6.55;;;3.47;;
33654;SDS011;19997;51.274;22.506;2023-05-07T13:14:16;15.65;;;5.97;;
33654;SDS011;19997;51.274;22.506;2023-05-07T13:16:45;8.57;;;4.57;;
33654;SDS011;19997;51.274;22.506;2023-05-07T13:19:12;6.40;;;3.35;;
33654;SDS011;19997;51.274;22.506;2023-05-07T13:21:39;2.88;;;1.88;;
33654;SDS011;19997;51.274;22.506;2023-05-07T13:24:08;4.15;;;2.30;;
33654;SDS011;19997;51.274;22.506;2023-05-07T13:26:35;3.25;;;2.03;;
33654;SDS011;19997;51.274;22.506;2023-05-07T13:29:02;4.63;;;2.13;;
33654;SDS011;19997;51.274;22.506;2023-05-07T13:31:29;5.45;;;2.38;;
33654;SDS011;19997;51.274;22.506;2023-05-07T13:33:57;4.72;;;1.92;;
33654;SDS011;19997;51.274;22.506;2023-05-07T13:36:24;2.72;;;1.92;;
33654;SDS011;19997;51.274;22.506;2023-05-07T13:38:52;3.42;;;2.00;;
33654;SDS011;19997;51.274;22.506;2023-05-07T13:41:20;4.18;;;2.17;;
33654;SDS011;19997;51.274;22.506;2023-05-07T13:43:47;3.45;;;2.58;;
33654;SDS011;19997;51.274;22.506;2023-05-07T13:46:14;2.42;;;1.63;;
33654;SDS011;19997;51.274;22.506;2023-05-07T13:48:41;3.20;;;1.95;;
33654;SDS011;19997;51.274;22.506;2023-05-07T13:51:08;5.53;;;2.28;;
33654;SDS011;19997;51.274;22.506;2023-05-07T13:53:35;3.85;;;1.92;;
33654;SDS011;19997;51.274;22.506;2023-05-07T13:56:03;3.35;;;2.13;;
33654;SDS011;19997;51.274;22.506;2023-05-07T13:58:32;3.00;;;1.90;;
33654;SDS011;19997;51.274;22.506;2023-05-07T14:01:00;2.92;;;1.80;;
33654;SDS011;19997;51.274;22.506;2023-05-07T14:03:27;7.45;;;4.22;;
33654;SDS011;19997;51.274;22.506;2023-05-07T14:05:57;84.18;;;31.85;;
33654;SDS011;19997;51.274;22.506;2023-05-07T14:08:25;43.35;;;19.13;;
33654;SDS011;19997;51.274;22.506;2023-05-07T14:10:52;6.55;;;3.78;;
33654;SDS011;19997;51.274;22.506;2023-05-07T14:13:19;8.60;;;3.65;;
33654;SDS011;19997;51.274;22.506;2023-05-07T14:15:48;5.13;;;2.58;;
33654;SDS011;19997;51.274;22.506;2023-05-07T14:18:15;3.40;;;1.90;;
33654;SDS011;19997;51.274;22.506;2023-05-07T14:20:42;3.25;;;2.22;;
33654;SDS011;19997;51.274;22.506;2023-05-07T14:23:11;12.80;;;5.15;;
33654;SDS011;19997;51.274;22.506;2023-05-07T14:25:39;3.63;;;2.03;;
33654;SDS011;19997;51.274;22.506;2023-05-07T14:28:08;6.03;;;2.55;;
33654;SDS011;19997;51.274;22.506;2023-05-07T14:30:35;8.02;;;3.00;;
33654;SDS011;19997;51.274;22.506;2023-05-07T14:33:04;4.47;;;3.13;;
33654;SDS011;19997;51.274;22.506;2023-05-07T14:35:31;6.22;;;2.97;;
33654;SDS011;19997;51.274;22.506;2023-05-07T14:37:58;5.13;;;3.10;;
33654;SDS011;19997;51.274;22.506;2023-05-07T14:40:25;9.00;;;3.88;;
33654;SDS011;19997;51.274;22.506;2023-05-07T14:42:52;7.85;;;3.70;;
33654;SDS011;19997;51.274;22.506;2023-05-07T14:45:20;5.18;;;2.55;;
33654;SDS011;19997;51.274;22.506;2023-05-07T14:47:47;5.28;;;2.63;;
33654;SDS011;19997;51.274;22.506;2023-05-07T14:50:18;4.78;;;2.30;;
33654;SDS011;19997;51.274;22.506;2023-05-07T14:52:46;5.32;;;2.53;;
33654;SDS011;19997;51.274;22.506;2023-05-07T14:55:15;7.22;;;3.10;;
33654;SDS011;19997;51.274;22.506;2023-05-07T15:00:14;9.43;;;2.30;;
33654;SDS011;19997;51.274;22.506;2023-05-07T15:02:42;5.00;;;2.47;;
33654;SDS011;19997;51.274;22.506;2023-05-07T15:05:10;4.32;;;1.88;;
33654;SDS011;19997;51.274;22.506;2023-05-07T15:07:41;9.68;;;3.05;;
33654;SDS011;19997;51.274;22.506;2023-05-07T15:10:10;7.13;;;3.47;;